Doswell, Virginia
Current Conditions -  °F | °C
As of 8:54 PM on Saturday 22 Nov 2014 (Local Time) from KOFP Reporting Station
Clear Clear  
Wind Chill: 31°   Ceiling: Unl
Heat Index: 36°   Visibility: 10mi
Dew Point: 18°   Wind: 6mph
Humidity: 48%   Direction: 180°S
Pressure: 30.34"   Gusts: NA
Location:  37.86°N, 77.46°W
Report Text: KOFP 230154Z AUTO 18005KT 10SM CLR 02/M08 A3034 RMK AO2 SLP276 T00221078
Loading
Personal Weather Stations






























Interactive Weather Map New forecast layout! Learn more

10-Day Weather Forecast

Advertisements
Track Severe Weather on mobile